createdAt,value
2022-08-24T00:01:56.255Z,20.50
2022-08-24T00:04:24.744Z,20.50
2022-08-24T00:06:52.909Z,20.50
2022-08-24T00:09:20.902Z,20.40
2022-08-24T00:11:48.940Z,20.40
2022-08-24T00:14:16.921Z,20.40
2022-08-24T00:16:46.543Z,20.40
2022-08-24T00:19:14.576Z,20.30
2022-08-24T00:21:42.507Z,20.20
2022-08-24T00:24:11.461Z,20.20
2022-08-24T00:26:39.750Z,20.20
2022-08-24T00:29:07.882Z,20.20
2022-08-24T00:31:36.763Z,20.20
2022-08-24T00:34:06.783Z,20.10
2022-08-24T00:36:35.231Z,20.10
2022-08-24T00:39:04.703Z,20.10
2022-08-24T00:41:33.001Z,20.10
2022-08-24T00:44:05.627Z,20.00
2022-08-24T00:46:43.546Z,20.00
2022-08-24T00:49:21.478Z,20.00
2022-08-24T00:51:56.299Z,20.10
2022-08-24T00:54:27.923Z,20.00
2022-08-24T00:57:00.886Z,20.10
2022-08-24T00:59:33.571Z,20.10
2022-08-24T01:02:15.156Z,20.00
2022-08-24T01:05:01.606Z,20.00
2022-08-24T01:07:31.918Z,20.00
2022-08-24T01:10:04.052Z,20.00
2022-08-24T01:12:33.993Z,20.00
2022-08-24T01:15:04.764Z,19.90
2022-08-24T01:17:50.326Z,20.00
2022-08-24T01:20:20.889Z,19.90
2022-08-24T01:22:59.187Z,20.00
2022-08-24T01:25:31.092Z,20.00
2022-08-24T01:28:05.492Z,20.00
2022-08-24T01:30:36.707Z,20.00
2022-08-24T01:33:08.099Z,20.00
2022-08-24T01:35:37.578Z,20.00
2022-08-24T01:38:11.493Z,19.90
2022-08-24T01:40:44.675Z,19.90
2022-08-24T01:43:15.122Z,19.90
2022-08-24T01:45:43.743Z,19.90
2022-08-24T01:48:12.098Z,19.90
2022-08-24T01:50:40.308Z,20.00
2022-08-24T01:53:09.047Z,20.00
2022-08-24T01:55:37.438Z,20.00
2022-08-24T01:58:07.318Z,20.00
2022-08-24T02:00:36.904Z,20.00
2022-08-24T02:03:05.728Z,20.00
2022-08-24T02:05:34.526Z,20.00
2022-08-24T02:08:02.827Z,20.00
2022-08-24T02:10:30.946Z,20.00
2022-08-24T02:13:00.597Z,20.00
2022-08-24T02:15:33.245Z,19.90
2022-08-24T02:18:02.019Z,19.90
2022-08-24T02:20:30.364Z,19.90
2022-08-24T02:22:58.671Z,19.90
2022-08-24T02:25:30.151Z,19.80
2022-08-24T02:27:58.436Z,19.80
2022-08-24T02:30:27.219Z,19.80
2022-08-24T02:32:56.534Z,19.70
2022-08-24T02:35:25.124Z,19.60
2022-08-24T02:37:53.225Z,19.60
2022-08-24T02:40:21.860Z,19.70
2022-08-24T02:42:50.014Z,19.60
2022-08-24T02:45:18.369Z,19.60
2022-08-24T02:47:46.358Z,19.60
2022-08-24T02:50:17.793Z,19.60
2022-08-24T02:52:46.037Z,19.60
2022-08-24T02:55:20.049Z,19.60
2022-08-24T02:57:48.910Z,19.60
2022-08-24T03:00:22.804Z,19.50
2022-08-24T03:02:50.971Z,19.50
2022-08-24T03:05:20.551Z,19.50
2022-08-24T03:07:49.077Z,19.60
2022-08-24T03:10:20.717Z,19.60
2022-08-24T03:12:49.728Z,19.60
2022-08-24T03:15:21.701Z,19.60
2022-08-24T03:17:50.832Z,19.60
2022-08-24T03:20:22.624Z,19.50
2022-08-24T03:22:51.099Z,19.50
2022-08-24T03:25:21.246Z,19.30
2022-08-24T03:27:49.344Z,19.10
2022-08-24T03:30:18.817Z,18.90
2022-08-24T03:32:47.473Z,18.80
2022-08-24T03:35:16.534Z,18.80
2022-08-24T03:37:45.995Z,18.80
2022-08-24T03:40:22.959Z,18.70
2022-08-24T03:42:53.521Z,18.70
2022-08-24T03:45:21.843Z,18.60
2022-08-24T03:47:49.868Z,18.60
2022-08-24T03:50:18.135Z,18.70
2022-08-24T03:52:47.877Z,18.60
2022-08-24T03:55:16.317Z,18.60
2022-08-24T03:57:44.473Z,18.70
2022-08-24T04:00:13.939Z,18.60
2022-08-24T04:02:41.925Z,18.60
2022-08-24T04:05:10.768Z,18.60
2022-08-24T04:07:38.779Z,18.60
2022-08-24T04:10:09.375Z,18.60
2022-08-24T04:12:37.357Z,18.60
2022-08-24T04:15:06.087Z,18.60
2022-08-24T04:17:34.095Z,18.60
2022-08-24T04:20:02.944Z,18.60
2022-08-24T04:22:34.136Z,18.60
2022-08-24T04:25:02.230Z,18.60
2022-08-24T04:27:38.476Z,18.60
2022-08-24T04:30:07.302Z,18.60
2022-08-24T04:32:35.727Z,18.60
2022-08-24T04:35:03.921Z,18.60
2022-08-24T04:37:32.208Z,18.60
2022-08-24T04:40:00.319Z,18.60
2022-08-24T04:42:31.609Z,18.60
2022-08-24T04:45:02.951Z,18.60
2022-08-24T04:47:31.084Z,18.60
2022-08-24T04:49:59.205Z,18.70
2022-08-24T04:52:46.222Z,18.60
2022-08-24T04:55:22.889Z,18.60
2022-08-24T04:58:04.455Z,18.60
2022-08-24T05:00:48.153Z,18.60
2022-08-24T05:03:19.739Z,18.60
2022-08-24T05:05:56.961Z,18.70
2022-08-24T05:08:25.146Z,18.70
2022-08-24T05:10:55.327Z,18.70
2022-08-24T05:13:23.771Z,18.70
2022-08-24T05:15:53.279Z,18.70
2022-08-24T05:18:21.966Z,18.70
2022-08-24T05:20:53.529Z,18.80
2022-08-24T05:23:21.693Z,18.80
2022-08-24T05:25:50.256Z,18.80
2022-08-24T05:28:21.518Z,18.90
2022-08-24T05:30:51.138Z,18.90
2022-08-24T05:33:25.745Z,19.00
2022-08-24T05:35:55.189Z,19.10
2022-08-24T05:38:49.820Z,19.10
2022-08-24T05:41:28.948Z,19.20
2022-08-24T05:43:59.391Z,19.20
2022-08-24T05:47:01.430Z,19.30
2022-08-24T05:49:41.742Z,19.30
2022-08-24T05:52:17.098Z,19.40
2022-08-24T05:55:01.143Z,19.50
2022-08-24T05:57:34.296Z,19.50
2022-08-24T06:00:17.498Z,19.60
2022-08-24T06:06:31.937Z,19.80
2022-08-24T06:09:19.570Z,19.90
2022-08-24T06:11:48.814Z,20.00
2022-08-24T06:14:52.110Z,20.20
2022-08-24T06:17:36.776Z,20.20
2022-08-24T06:20:12.098Z,20.50
2022-08-24T06:22:47.767Z,20.90
2022-08-24T06:25:39.414Z,21.30
2022-08-24T06:28:15.877Z,21.60
2022-08-24T06:31:19.940Z,21.70
2022-08-24T06:33:48.919Z,21.80
2022-08-24T06:36:17.139Z,21.90
2022-08-24T06:38:52.105Z,21.90
2022-08-24T06:41:20.673Z,21.90
2022-08-24T06:43:48.932Z,22.00
2022-08-24T06:46:20.901Z,22.00
2022-08-24T06:48:54.187Z,22.00
2022-08-24T06:51:25.434Z,22.20
2022-08-24T06:54:01.274Z,22.30
2022-08-24T06:56:37.341Z,22.40
2022-08-24T06:59:07.374Z,22.70
2022-08-24T07:01:43.810Z,22.80
2022-08-24T07:04:28.424Z,23.00
2022-08-24T07:06:57.295Z,23.20
2022-08-24T07:09:27.365Z,23.20
2022-08-24T07:11:55.544Z,23.40
2022-08-24T07:14:23.505Z,23.50
2022-08-24T07:16:51.423Z,23.60
2022-08-24T07:19:19.608Z,23.80
2022-08-24T07:21:47.632Z,24.00
2022-08-24T07:24:15.814Z,24.20
2022-08-24T07:26:45.183Z,24.30
2022-08-24T07:29:43.746Z,24.30
2022-08-24T07:32:03.505Z,24.30
2022-08-24T07:34:31.500Z,24.20
2022-08-24T07:37:00.488Z,24.30
2022-08-24T07:39:28.658Z,24.40
2022-08-24T07:42:17.425Z,24.50
2022-08-24T07:44:46.266Z,24.60
2022-08-24T07:47:37.103Z,24.80
2022-08-24T07:50:02.713Z,24.90
2022-08-24T07:52:31.298Z,25.00
2022-08-24T07:54:59.679Z,25.10
2022-08-24T07:57:29.075Z,25.40
2022-08-24T07:59:57.045Z,25.30
2022-08-24T08:02:30.816Z,25.50
2022-08-24T08:05:04.612Z,25.50
2022-08-24T08:07:32.654Z,25.70
2022-08-24T08:10:01.889Z,25.90
2022-08-24T08:12:31.178Z,26.00
2022-08-24T08:14:59.124Z,25.90
2022-08-24T08:17:27.274Z,26.10
2022-08-24T08:19:55.561Z,26.10
2022-08-24T08:22:41.122Z,26.30
2022-08-24T08:25:09.627Z,26.40
2022-08-24T08:27:39.040Z,26.40
2022-08-24T08:30:08.141Z,26.40
2022-08-24T08:32:36.086Z,26.50
2022-08-24T08:35:06.789Z,26.70
2022-08-24T08:40:12.587Z,27.10
2022-08-24T08:42:57.277Z,27.10
2022-08-24T08:45:35.392Z,27.20
2022-08-24T08:48:47.376Z,27.20
2022-08-24T08:51:40.189Z,27.20
2022-08-24T08:54:14.906Z,27.20
2022-08-24T08:56:59.266Z,27.30
2022-08-24T08:59:43.663Z,27.50
2022-08-24T09:02:23.697Z,27.90
2022-08-24T09:05:19.423Z,28.30
2022-08-24T09:07:59.241Z,28.10
2022-08-24T09:10:44.795Z,28.00
2022-08-24T09:13:25.631Z,28.00
2022-08-24T09:16:15.822Z,28.10
2022-08-24T09:18:56.345Z,28.60
2022-08-24T09:21:45.854Z,28.60
2022-08-24T09:24:32.530Z,29.10
2022-08-24T09:27:15.066Z,28.90
2022-08-24T09:29:56.033Z,28.90
2022-08-24T09:32:58.742Z,29.20
2022-08-24T09:35:34.723Z,29.40
2022-08-24T09:38:12.269Z,29.50
2022-08-24T09:41:01.122Z,29.50
2022-08-24T09:44:01.416Z,29.60
2022-08-24T09:47:00.032Z,29.60
2022-08-24T09:49:50.144Z,29.60
2022-08-24T09:53:00.372Z,29.60
2022-08-24T09:55:47.345Z,29.80
2022-08-24T09:58:26.588Z,29.90
2022-08-24T10:01:04.056Z,29.80
2022-08-24T10:03:52.253Z,30.20
2022-08-24T10:06:33.251Z,30.00
2022-08-24T10:09:26.969Z,30.30
2022-08-24T10:12:05.029Z,30.70
2022-08-24T10:14:46.853Z,30.70
2022-08-24T10:17:23.391Z,30.40
2022-08-24T10:20:05.915Z,30.20
2022-08-24T10:22:56.041Z,30.10
2022-08-24T10:25:38.687Z,29.80
2022-08-24T10:28:32.289Z,29.40
2022-08-24T10:31:05.664Z,29.20
2022-08-24T10:33:45.762Z,29.10
2022-08-24T10:36:50.288Z,29.60
2022-08-24T10:39:45.806Z,30.00
2022-08-24T10:43:06.051Z,30.70
2022-08-24T10:45:58.334Z,31.10
2022-08-24T10:48:55.549Z,31.00
2022-08-24T10:51:36.124Z,31.30
2022-08-24T10:54:05.730Z,31.80
2022-08-24T10:56:42.246Z,31.90
2022-08-24T10:59:23.425Z,31.70
2022-08-24T11:02:12.298Z,31.60
2022-08-24T11:04:41.677Z,31.50
2022-08-24T11:07:18.503Z,31.90
2022-08-24T11:09:53.468Z,31.70
2022-08-24T11:12:29.408Z,32.00
2022-08-24T11:15:01.929Z,32.10
2022-08-24T11:17:32.043Z,32.10
2022-08-24T11:20:00.198Z,32.20
2022-08-24T11:22:36.915Z,32.10
2022-08-24T11:25:11.727Z,32.40
2022-08-24T11:27:44.536Z,32.50
2022-08-24T11:30:16.985Z,32.10
2022-08-24T11:32:49.056Z,32.30
2022-08-24T11:35:21.936Z,32.40
2022-08-24T11:37:52.003Z,31.60
2022-08-24T11:40:23.201Z,31.70
2022-08-24T11:43:22.786Z,32.20
2022-08-24T11:46:04.178Z,32.10
2022-08-24T11:48:44.616Z,31.80
2022-08-24T11:51:28.071Z,31.80
2022-08-24T11:54:05.967Z,31.80
2022-08-24T11:56:42.214Z,32.00
2022-08-24T11:59:24.944Z,31.70
2022-08-24T12:01:56.984Z,30.90
2022-08-24T12:04:47.101Z,31.10
2022-08-24T12:07:25.546Z,31.30
2022-08-24T12:10:12.298Z,31.10
2022-08-24T12:12:47.917Z,30.80
2022-08-24T12:15:24.350Z,30.40
2022-08-24T12:17:57.192Z,30.20
2022-08-24T12:20:32.789Z,30.00
2022-08-24T12:23:04.443Z,30.00
2022-08-24T12:25:53.274Z,30.00
2022-08-24T12:28:26.698Z,30.00
2022-08-24T12:31:12.201Z,30.30
2022-08-24T12:33:45.116Z,30.50
2022-08-24T12:36:22.425Z,31.20
2022-08-24T12:39:03.197Z,32.40
2022-08-24T12:41:35.623Z,33.30
2022-08-24T12:44:09.928Z,34.10
2022-08-24T12:46:40.106Z,33.70
2022-08-24T12:49:15.658Z,33.60
2022-08-24T12:52:02.906Z,32.80
2022-08-24T12:54:56.352Z,32.90
2022-08-24T12:57:39.623Z,31.70
2022-08-24T13:00:14.518Z,32.10
2022-08-24T13:02:48.414Z,32.80
2022-08-24T13:05:20.818Z,32.50
2022-08-24T13:07:51.426Z,33.50
2022-08-24T13:10:40.025Z,34.30
2022-08-24T13:13:20.818Z,34.80
2022-08-24T13:16:03.054Z,35.00
2022-08-24T13:19:07.276Z,34.90
2022-08-24T13:21:40.544Z,34.60
2022-08-24T13:24:48.570Z,34.40
2022-08-24T13:27:55.554Z,34.40
2022-08-24T13:30:31.234Z,33.70
2022-08-24T13:33:07.399Z,32.80
2022-08-24T13:36:00.645Z,32.20
2022-08-24T13:39:08.382Z,32.00
2022-08-24T13:42:01.424Z,33.40
2022-08-24T13:44:49.627Z,34.50
2022-08-24T13:47:23.421Z,34.90
2022-08-24T13:50:03.197Z,34.50
2022-08-24T13:52:43.590Z,34.30
2022-08-24T13:55:31.512Z,34.00
2022-08-24T13:58:13.980Z,33.40
2022-08-24T14:00:51.921Z,32.80
2022-08-24T14:03:46.005Z,32.30
2022-08-24T14:06:31.335Z,32.20
2022-08-24T14:09:17.875Z,33.00
2022-08-24T14:12:13.529Z,33.90
2022-08-24T14:15:01.851Z,34.40
2022-08-24T14:17:55.579Z,34.60
2022-08-24T14:20:54.078Z,34.40
2022-08-24T14:23:31.571Z,34.30
2022-08-24T14:26:38.171Z,34.40
2022-08-24T14:29:42.573Z,34.50
2022-08-24T14:32:52.591Z,34.10
2022-08-24T14:35:34.255Z,33.20
2022-08-24T14:38:22.767Z,32.80
2022-08-24T14:41:04.190Z,32.60
2022-08-24T14:43:45.131Z,32.00
2022-08-24T14:46:24.266Z,31.60
2022-08-24T14:49:15.499Z,31.80
2022-08-24T14:52:05.798Z,31.50
2022-08-24T14:54:43.086Z,31.40
2022-08-24T14:57:40.717Z,30.80
2022-08-24T15:00:13.315Z,30.90
2022-08-24T15:03:12.821Z,30.90
2022-08-24T15:05:58.955Z,30.90
2022-08-24T15:08:43.103Z,30.60
2022-08-24T15:11:13.492Z,30.50
2022-08-24T15:13:48.404Z,30.40
2022-08-24T15:16:21.612Z,30.50
2022-08-24T15:18:58.527Z,30.80
2022-08-24T15:21:44.669Z,30.90
2022-08-24T15:24:21.302Z,30.90
2022-08-24T15:27:07.887Z,30.80
2022-08-24T15:29:46.858Z,30.30
2022-08-24T15:32:15.573Z,30.10
2022-08-24T15:34:48.760Z,30.00
2022-08-24T15:37:26.393Z,30.10
2022-08-24T15:39:55.746Z,30.20
2022-08-24T15:42:24.198Z,30.10
2022-08-24T15:44:52.667Z,30.10
2022-08-24T15:47:26.206Z,30.10
2022-08-24T15:49:57.967Z,30.10
2022-08-24T15:52:49.755Z,30.10
2022-08-24T15:55:31.797Z,30.00
2022-08-24T15:58:12.782Z,30.10
2022-08-24T16:00:58.731Z,30.00
2022-08-24T16:03:44.126Z,29.90
2022-08-24T16:06:20.565Z,29.90
2022-08-24T16:08:58.216Z,29.90
2022-08-24T16:11:33.106Z,29.90
2022-08-24T16:14:03.213Z,29.70
2022-08-24T16:16:36.219Z,29.70
2022-08-24T16:19:08.527Z,29.70
2022-08-24T16:21:39.188Z,29.70
2022-08-24T16:24:12.756Z,29.80
2022-08-24T16:26:56.072Z,29.80
2022-08-24T16:29:47.038Z,29.80
2022-08-24T16:32:23.354Z,29.70
2022-08-24T16:34:57.656Z,29.70
2022-08-24T16:37:26.268Z,29.60
2022-08-24T16:39:54.300Z,29.60
2022-08-24T16:42:27.165Z,29.50
2022-08-24T16:44:55.855Z,29.50
2022-08-24T16:47:24.693Z,29.40
2022-08-24T16:49:52.946Z,29.50
2022-08-24T16:52:21.142Z,29.40
2022-08-24T16:54:49.786Z,29.30
2022-08-24T16:57:20.827Z,29.30
2022-08-24T16:59:52.654Z,29.20
2022-08-24T17:02:22.621Z,29.10
2022-08-24T17:04:51.037Z,29.00
2022-08-24T17:07:24.024Z,29.00
2022-08-24T17:09:52.133Z,28.90
2022-08-24T17:12:20.798Z,28.90
2022-08-24T17:14:50.219Z,28.80
2022-08-24T17:17:21.560Z,28.70
2022-08-24T17:19:53.104Z,28.50
2022-08-24T17:22:21.163Z,28.60
2022-08-24T17:24:49.462Z,28.60
2022-08-24T17:27:18.734Z,28.60
2022-08-24T17:29:46.992Z,28.50
2022-08-24T17:32:16.471Z,28.40
2022-08-24T17:34:44.561Z,28.30
2022-08-24T17:37:12.890Z,28.30
2022-08-24T17:39:40.975Z,28.20
2022-08-24T17:42:27.988Z,28.00
2022-08-24T17:44:57.181Z,28.00
2022-08-24T17:47:26.442Z,27.90
2022-08-24T17:49:54.414Z,27.80
2022-08-24T17:52:22.442Z,27.70
2022-08-24T17:54:50.358Z,27.60
2022-08-24T17:57:18.398Z,27.50
2022-08-24T17:59:46.446Z,27.50
2022-08-24T18:02:14.345Z,27.50
2022-08-24T18:04:43.967Z,27.30
2022-08-24T18:07:16.669Z,27.30
2022-08-24T18:10:00.343Z,27.20
2022-08-24T18:12:28.558Z,27.10
2022-08-24T18:14:56.601Z,27.00
2022-08-24T18:17:31.384Z,27.00
2022-08-24T18:20:01.898Z,26.90
2022-08-24T18:22:30.410Z,26.80
2022-08-24T18:24:58.346Z,26.80
2022-08-24T18:27:30.535Z,26.70
2022-08-24T18:30:03.202Z,26.60
2022-08-24T18:32:33.482Z,26.60
2022-08-24T18:35:07.947Z,26.50
2022-08-24T18:37:36.133Z,26.40
2022-08-24T18:40:04.970Z,26.30
2022-08-24T18:42:34.644Z,26.20
2022-08-24T18:45:03.450Z,26.20
2022-08-24T18:47:31.714Z,26.10
2022-08-24T18:49:59.784Z,26.00
2022-08-24T18:52:29.166Z,26.00
2022-08-24T18:54:57.215Z,25.90
2022-08-24T18:57:25.307Z,25.90
2022-08-24T18:59:53.324Z,25.80
2022-08-24T19:02:34.074Z,25.70
2022-08-24T19:05:06.467Z,25.60
2022-08-24T19:07:40.209Z,25.60
2022-08-24T19:10:10.820Z,25.50
2022-08-24T19:12:42.529Z,25.40
2022-08-24T19:15:32.626Z,25.50
2022-08-24T19:18:05.581Z,25.40
2022-08-24T19:20:34.437Z,25.40
2022-08-24T19:23:09.816Z,25.30
2022-08-24T19:25:38.826Z,25.30
2022-08-24T19:28:09.123Z,25.30
2022-08-24T19:30:38.034Z,25.20
2022-08-24T19:33:11.898Z,25.10
2022-08-24T19:35:41.950Z,25.00
2022-08-24T19:38:11.323Z,25.00
2022-08-24T19:40:39.421Z,25.00
2022-08-24T19:43:16.486Z,25.00
2022-08-24T19:46:05.506Z,24.90
2022-08-24T19:48:35.284Z,24.90
2022-08-24T19:51:05.535Z,24.80
2022-08-24T19:53:37.514Z,24.90
2022-08-24T19:56:06.693Z,24.80
2022-08-24T19:58:40.440Z,24.70
2022-08-24T20:01:13.169Z,24.80
2022-08-24T20:03:41.430Z,24.70
2022-08-24T20:06:11.522Z,24.80
2022-08-24T20:08:41.726Z,24.70
2022-08-24T20:11:10.446Z,24.70
2022-08-24T20:13:38.806Z,24.60
2022-08-24T20:16:10.577Z,24.60
2022-08-24T20:18:39.215Z,24.60
2022-08-24T20:21:19.359Z,24.50
2022-08-24T20:23:55.475Z,24.50
2022-08-24T20:26:32.935Z,24.40
2022-08-24T20:29:15.258Z,24.50
2022-08-24T20:31:51.837Z,24.40
2022-08-24T20:38:03.783Z,24.40
2022-08-24T20:40:41.523Z,24.30
2022-08-24T20:43:25.134Z,24.30
2022-08-24T20:45:57.942Z,24.30
2022-08-24T20:48:34.327Z,24.30
2022-08-24T20:52:05.539Z,24.30
2022-08-24T20:54:39.333Z,24.30
2022-08-24T20:57:19.100Z,24.20
2022-08-24T20:59:53.304Z,24.20
2022-08-24T21:02:31.212Z,24.20
2022-08-24T21:05:09.353Z,24.20
2022-08-24T21:07:49.871Z,24.30
2022-08-24T21:10:51.312Z,24.30
2022-08-24T21:13:25.412Z,24.20
2022-08-24T21:16:04.849Z,24.20
2022-08-24T21:18:38.332Z,24.20
2022-08-24T21:21:37.872Z,24.10
2022-08-24T21:24:16.674Z,24.10
2022-08-24T21:26:49.271Z,24.00
2022-08-24T21:29:19.343Z,24.00
2022-08-24T21:32:02.505Z,24.00
2022-08-24T21:34:43.481Z,24.00
2022-08-24T21:37:15.259Z,24.00
2022-08-24T21:39:46.434Z,23.90
2022-08-24T21:42:20.073Z,24.00
2022-08-24T21:45:01.117Z,23.90
2022-08-24T21:47:29.549Z,23.80
2022-08-24T21:50:02.245Z,23.80
2022-08-24T21:52:30.933Z,23.70
2022-08-24T21:55:15.015Z,23.70
2022-08-24T21:57:56.531Z,23.60
2022-08-24T22:00:29.564Z,23.50
2022-08-24T22:03:00.771Z,23.50
2022-08-24T22:05:36.400Z,23.50
2022-08-24T22:08:48.550Z,23.50
2022-08-24T22:11:27.256Z,23.50
2022-08-24T22:14:03.421Z,23.40
2022-08-24T22:16:57.316Z,23.40
2022-08-24T22:19:31.031Z,23.30
2022-08-24T22:21:59.544Z,23.30
2022-08-24T22:24:35.092Z,23.30
2022-08-24T22:27:14.103Z,23.30
2022-08-24T22:29:49.444Z,23.20
2022-08-24T22:32:29.812Z,23.20
2022-08-24T22:35:00.539Z,23.00
2022-08-24T22:37:37.204Z,23.10
2022-08-24T22:40:35.779Z,23.10
2022-08-24T22:43:14.501Z,23.10
2022-08-24T22:45:47.461Z,23.00
2022-08-24T22:48:18.139Z,23.00
2022-08-24T22:50:58.593Z,23.00
2022-08-24T22:53:42.523Z,23.00
2022-08-24T22:56:17.432Z,23.00
2022-08-24T22:58:56.817Z,22.90
2022-08-24T23:01:28.262Z,22.90
2022-08-24T23:04:08.282Z,22.80
2022-08-24T23:06:42.930Z,22.80
2022-08-24T23:09:19.985Z,22.80
2022-08-24T23:11:57.200Z,22.80
2022-08-24T23:14:32.500Z,22.70
2022-08-24T23:17:34.584Z,22.70
2022-08-24T23:20:08.061Z,22.70
2022-08-24T23:22:38.878Z,22.70
2022-08-24T23:25:10.871Z,22.70
2022-08-24T23:27:50.175Z,22.70
2022-08-24T23:30:36.830Z,22.70
2022-08-24T23:33:07.151Z,22.70
2022-08-24T23:35:49.082Z,22.70
2022-08-24T23:38:24.484Z,22.60
2022-08-24T23:40:52.688Z,22.60
2022-08-24T23:43:32.118Z,22.50
2022-08-24T23:46:03.729Z,22.50
2022-08-24T23:48:32.809Z,22.40
2022-08-24T23:51:04.748Z,22.40
2022-08-24T23:53:47.151Z,22.40
2022-08-24T23:56:31.494Z,22.40
2022-08-24T23:59:02.946Z,22.40
